sensor_id;sensor_type;location;lat;lon;timestamp;pressure;altitude;pressure_sealevel;temperature;humidity
43814;BME280;29669;55.706;37.656;2022-10-16T00:01:50;101212.59;;;5.77;nan
43814;BME280;29669;55.706;37.656;2022-10-16T00:04:39;101198.34;;;5.71;nan
43814;BME280;29669;55.706;37.656;2022-10-16T00:07:27;101207.09;;;5.68;nan
43814;BME280;29669;55.706;37.656;2022-10-16T00:10:15;101208.03;;;5.67;nan
43814;BME280;29669;55.706;37.656;2022-10-16T00:13:04;101211.50;;;5.66;nan
43814;BME280;29669;55.706;37.656;2022-10-16T00:15:55;101214.94;;;5.67;nan
43814;BME280;29669;55.706;37.656;2022-10-16T00:18:43;101218.22;;;5.69;nan
43814;BME280;29669;55.706;37.656;2022-10-16T00:21:31;101217.41;;;5.68;nan
43814;BME280;29669;55.706;37.656;2022-10-16T00:24:39;101214.09;;;5.66;nan
43814;BME280;29669;55.706;37.656;2022-10-16T00:27:27;101218.34;;;5.67;nan
43814;BME280;29669;55.706;37.656;2022-10-16T00:30:14;101214.09;;;5.66;nan
43814;BME280;29669;55.706;37.656;2022-10-16T00:33:02;101215.19;;;5.62;nan
43814;BME280;29669;55.706;37.656;2022-10-16T00:35:51;101220.66;;;5.58;nan
43814;BME280;29669;55.706;37.656;2022-10-16T00:38:39;101216.50;;;5.55;nan
43814;BME280;29669;55.706;37.656;2022-10-16T00:41:27;101220.84;;;5.55;nan
43814;BME280;29669;55.706;37.656;2022-10-16T00:45:08;101221.88;;;5.52;nan
43814;BME280;29669;55.706;37.656;2022-10-16T00:47:51;101227.50;;;5.45;nan
43814;BME280;29669;55.706;37.656;2022-10-16T00:50:41;101226.19;;;5.38;nan
43814;BME280;29669;55.706;37.656;2022-10-16T00:53:31;101226.50;;;5.33;nan
43814;BME280;29669;55.706;37.656;2022-10-16T00:56:19;101223.75;;;5.22;nan
43814;BME280;29669;55.706;37.656;2022-10-16T00:59:15;101232.00;;;5.13;nan
43814;BME280;29669;55.706;37.656;2022-10-16T01:02:05;101232.56;;;5.04;nan
43814;BME280;29669;55.706;37.656;2022-10-16T01:04:54;101234.88;;;4.95;nan
43814;BME280;29669;55.706;37.656;2022-10-16T01:08:05;101235.41;;;4.86;nan
43814;BME280;29669;55.706;37.656;2022-10-16T01:11:07;101241.91;;;4.77;nan
43814;BME280;29669;55.706;37.656;2022-10-16T01:14:06;101240.63;;;4.70;nan
43814;BME280;29669;55.706;37.656;2022-10-16T01:20:00;101248.16;;;4.59;nan
43814;BME280;29669;55.706;37.656;2022-10-16T01:28:40;101251.91;;;4.53;nan
43814;BME280;29669;55.706;37.656;2022-10-16T01:31:32;101242.91;;;4.46;nan
43814;BME280;29669;55.706;37.656;2022-10-16T01:34:28;101252.50;;;4.43;nan
43814;BME280;29669;55.706;37.656;2022-10-16T01:37:29;101252.69;;;4.40;nan
43814;BME280;29669;55.706;37.656;2022-10-16T01:40:20;101256.34;;;4.36;nan
43814;BME280;29669;55.706;37.656;2022-10-16T01:43:45;101257.09;;;4.38;nan
43814;BME280;29669;55.706;37.656;2022-10-16T01:46:33;101250.84;;;4.42;nan
43814;BME280;29669;55.706;37.656;2022-10-16T01:49:25;101251.41;;;4.47;nan
43814;BME280;29669;55.706;37.656;2022-10-16T01:52:19;101256.50;;;4.48;nan
43814;BME280;29669;55.706;37.656;2022-10-16T01:55:13;101251.41;;;4.47;nan
43814;BME280;29669;55.706;37.656;2022-10-16T01:58:05;101258.22;;;4.48;nan
43814;BME280;29669;55.706;37.656;2022-10-16T02:00:55;101254.16;;;4.44;nan
43814;BME280;29669;55.706;37.656;2022-10-16T02:03:44;101257.22;;;4.50;nan
43814;BME280;29669;55.706;37.656;2022-10-16T02:06:33;101253.97;;;4.47;nan
43814;BME280;29669;55.706;37.656;2022-10-16T02:09:22;101266.09;;;4.45;nan
43814;BME280;29669;55.706;37.656;2022-10-16T02:12:23;101261.16;;;4.42;nan
43814;BME280;29669;55.706;37.656;2022-10-16T02:15:14;101254.22;;;4.28;nan
43814;BME280;29669;55.706;37.656;2022-10-16T02:18:04;101259.78;;;4.21;nan
43814;BME280;29669;55.706;37.656;2022-10-16T02:27:19;101257.81;;;4.10;nan
43814;BME280;29669;55.706;37.656;2022-10-16T02:30:16;101256.06;;;4.11;nan
43814;BME280;29669;55.706;37.656;2022-10-16T02:33:09;101266.53;;;4.08;nan
43814;BME280;29669;55.706;37.656;2022-10-16T02:35:57;101265.22;;;4.01;nan
43814;BME280;29669;55.706;37.656;2022-10-16T02:38:45;101268.19;;;3.93;nan
43814;BME280;29669;55.706;37.656;2022-10-16T02:41:33;101269.47;;;3.86;nan
43814;BME280;29669;55.706;37.656;2022-10-16T02:44:21;101264.56;;;3.81;nan
43814;BME280;29669;55.706;37.656;2022-10-16T02:47:09;101269.69;;;3.81;nan
43814;BME280;29669;55.706;37.656;2022-10-16T02:50:03;101269.84;;;3.78;nan
43814;BME280;29669;55.706;37.656;2022-10-16T02:52:51;101272.34;;;3.80;nan
43814;BME280;29669;55.706;37.656;2022-10-16T02:55:39;101268.03;;;3.80;nan
43814;BME280;29669;55.706;37.656;2022-10-16T02:58:27;101277.31;;;3.83;nan
43814;BME280;29669;55.706;37.656;2022-10-16T03:01:14;101279.66;;;3.88;nan
43814;BME280;29669;55.706;37.656;2022-10-16T03:04:04;101277.81;;;3.90;nan
43814;BME280;29669;55.706;37.656;2022-10-16T03:06:52;101272.69;;;3.90;nan
43814;BME280;29669;55.706;37.656;2022-10-16T03:09:40;101283.94;;;3.87;nan
43814;BME280;29669;55.706;37.656;2022-10-16T03:12:28;101277.22;;;3.84;nan
43814;BME280;29669;55.706;37.656;2022-10-16T03:15:17;101279.88;;;3.83;nan
43814;BME280;29669;55.706;37.656;2022-10-16T03:18:05;101285.84;;;3.83;nan
43814;BME280;29669;55.706;37.656;2022-10-16T03:20:53;101284.28;;;3.81;nan
43814;BME280;29669;55.706;37.656;2022-10-16T03:23:41;101286.75;;;3.82;nan
43814;BME280;29669;55.706;37.656;2022-10-16T03:26:29;101291.09;;;3.82;nan
43814;BME280;29669;55.706;37.656;2022-10-16T03:29:17;101294.63;;;3.79;nan
43814;BME280;29669;55.706;37.656;2022-10-16T03:32:05;101290.38;;;3.78;nan
43814;BME280;29669;55.706;37.656;2022-10-16T03:34:53;101294.72;;;3.78;nan
43814;BME280;29669;55.706;37.656;2022-10-16T03:37:42;101298.09;;;3.78;nan
43814;BME280;29669;55.706;37.656;2022-10-16T03:40:29;101294.81;;;3.76;nan
43814;BME280;29669;55.706;37.656;2022-10-16T03:43:19;101301.75;;;3.74;nan
43814;BME280;29669;55.706;37.656;2022-10-16T03:46:07;101296.03;;;3.69;nan
43814;BME280;29669;55.706;37.656;2022-10-16T03:48:55;101307.97;;;3.70;nan
43814;BME280;29669;55.706;37.656;2022-10-16T03:51:43;101306.28;;;3.69;nan
43814;BME280;29669;55.706;37.656;2022-10-16T03:54:31;101306.28;;;3.69;nan
43814;BME280;29669;55.706;37.656;2022-10-16T03:57:19;101309.69;;;3.70;nan
43814;BME280;29669;55.706;37.656;2022-10-16T04:00:08;101300.19;;;3.72;nan
43814;BME280;29669;55.706;37.656;2022-10-16T04:03:00;101306.97;;;3.73;nan
43814;BME280;29669;55.706;37.656;2022-10-16T04:05:48;101309.47;;;3.74;nan
43814;BME280;29669;55.706;37.656;2022-10-16T04:08:36;101309.19;;;3.79;nan
43814;BME280;29669;55.706;37.656;2022-10-16T04:11:24;101303.09;;;3.81;nan
43814;BME280;29669;55.706;37.656;2022-10-16T04:14:12;101304.50;;;3.87;nan
43814;BME280;29669;55.706;37.656;2022-10-16T04:17:00;101305.06;;;3.92;nan
43814;BME280;29669;55.706;37.656;2022-10-16T04:19:48;101299.69;;;3.97;nan
43814;BME280;29669;55.706;37.656;2022-10-16T04:22:36;101300.25;;;4.02;nan
43814;BME280;29669;55.706;37.656;2022-10-16T04:25:23;101303.31;;;4.08;nan
43814;BME280;29669;55.706;37.656;2022-10-16T04:28:11;101301.41;;;4.12;nan
43814;BME280;29669;55.706;37.656;2022-10-16T04:30:59;101311.44;;;4.16;nan
43814;BME280;29669;55.706;37.656;2022-10-16T04:33:48;101309.69;;;4.17;nan
43814;BME280;29669;55.706;37.656;2022-10-16T04:36:36;101307.72;;;4.22;nan
43814;BME280;29669;55.706;37.656;2022-10-16T04:39:24;101309.19;;;4.26;nan
43814;BME280;29669;55.706;37.656;2022-10-16T04:42:12;101316.63;;;4.30;nan
43814;BME280;29669;55.706;37.656;2022-10-16T04:45:00;101315.38;;;4.37;nan
43814;BME280;29669;55.706;37.656;2022-10-16T04:47:49;101309.06;;;4.43;nan
43814;BME280;29669;55.706;37.656;2022-10-16T04:50:37;101319.94;;;4.48;nan
43814;BME280;29669;55.706;37.656;2022-10-16T04:53:25;101314.34;;;4.55;nan
43814;BME280;29669;55.706;37.656;2022-10-16T04:56:13;101325.03;;;4.63;nan
43814;BME280;29669;55.706;37.656;2022-10-16T04:59:02;101322.84;;;4.71;nan
43814;BME280;29669;55.706;37.656;2022-10-16T05:01:50;101321.50;;;4.80;nan
43814;BME280;29669;55.706;37.656;2022-10-16T05:04:38;101320.88;;;4.91;nan
43814;BME280;29669;55.706;37.656;2022-10-16T05:07:26;101327.97;;;5.01;nan
43814;BME280;29669;55.706;37.656;2022-10-16T05:10:15;101322.28;;;5.10;nan
43814;BME280;29669;55.706;37.656;2022-10-16T05:13:03;101325.25;;;5.18;nan
43814;BME280;29669;55.706;37.656;2022-10-16T05:15:51;101325.69;;;5.25;nan
43814;BME280;29669;55.706;37.656;2022-10-16T05:18:39;101327.81;;;5.32;nan
43814;BME280;29669;55.706;37.656;2022-10-16T05:21:27;101329.09;;;5.39;nan
43814;BME280;29669;55.706;37.656;2022-10-16T05:24:15;101324.41;;;5.46;nan
43814;BME280;29669;55.706;37.656;2022-10-16T05:27:03;101332.59;;;5.52;nan
43814;BME280;29669;55.706;37.656;2022-10-16T05:29:51;101336.47;;;5.59;nan
43814;BME280;29669;55.706;37.656;2022-10-16T05:32:39;101328.25;;;5.67;nan
43814;BME280;29669;55.706;37.656;2022-10-16T05:35:27;101331.28;;;5.73;nan
43814;BME280;29669;55.706;37.656;2022-10-16T05:38:16;101341.94;;;5.82;nan
43814;BME280;29669;55.706;37.656;2022-10-16T05:41:04;101335.50;;;5.89;nan
43814;BME280;29669;55.706;37.656;2022-10-16T05:43:52;101334.13;;;5.97;nan
43814;BME280;29669;55.706;37.656;2022-10-16T05:46:41;101343.97;;;6.05;nan
43814;BME280;29669;55.706;37.656;2022-10-16T05:49:28;101340.06;;;6.12;nan
43814;BME280;29669;55.706;37.656;2022-10-16T05:52:16;101334.53;;;6.18;nan
43814;BME280;29669;55.706;37.656;2022-10-16T05:55:05;101340.94;;;6.25;nan
43814;BME280;29669;55.706;37.656;2022-10-16T05:57:56;101343.88;;;6.33;nan
43814;BME280;29669;55.706;37.656;2022-10-16T06:00:44;101345.97;;;6.40;nan
43814;BME280;29669;55.706;37.656;2022-10-16T06:03:32;101343.09;;;6.45;nan
43814;BME280;29669;55.706;37.656;2022-10-16T06:06:22;101346.84;;;6.53;nan
43814;BME280;29669;55.706;37.656;2022-10-16T06:09:10;101348.91;;;6.61;nan
43814;BME280;29669;55.706;37.656;2022-10-16T06:11:58;101353.78;;;6.65;nan
43814;BME280;29669;55.706;37.656;2022-10-16T06:14:46;101353.19;;;6.75;nan
43814;BME280;29669;55.706;37.656;2022-10-16T06:17:37;101345.16;;;6.79;nan
43814;BME280;29669;55.706;37.656;2022-10-16T06:20:25;101348.16;;;6.86;nan
43814;BME280;29669;55.706;37.656;2022-10-16T06:23:13;101357.88;;;6.95;nan
43814;BME280;29669;55.706;37.656;2022-10-16T06:26:15;101343.53;;;7.03;nan
43814;BME280;29669;55.706;37.656;2022-10-16T06:29:03;101350.78;;;7.11;nan
43814;BME280;29669;55.706;37.656;2022-10-16T06:31:52;101356.16;;;7.20;nan
43814;BME280;29669;55.706;37.656;2022-10-16T06:34:40;101354.81;;;7.27;nan
43814;BME280;29669;55.706;37.656;2022-10-16T06:37:30;101353.44;;;7.34;nan
43814;BME280;29669;55.706;37.656;2022-10-16T06:40:18;101348.72;;;7.41;nan
43814;BME280;29669;55.706;37.656;2022-10-16T06:43:06;101354.19;;;7.49;nan
43814;BME280;29669;55.706;37.656;2022-10-16T06:45:55;101357.88;;;7.57;nan
43814;BME280;29669;55.706;37.656;2022-10-16T06:48:45;101358.19;;;7.66;nan
43814;BME280;29669;55.706;37.656;2022-10-16T06:51:48;101351.66;;;7.73;nan
43814;BME280;29669;55.706;37.656;2022-10-16T06:54:36;101356.19;;;7.82;nan
43814;BME280;29669;55.706;37.656;2022-10-16T06:57:29;101354.84;;;7.89;nan
43814;BME280;29669;55.706;37.656;2022-10-16T07:00:17;101352.66;;;7.95;nan
43814;BME280;29669;55.706;37.656;2022-10-16T07:03:04;101367.63;;;8.03;nan
43814;BME280;29669;55.706;37.656;2022-10-16T07:05:52;101355.94;;;8.10;nan
43814;BME280;29669;55.706;37.656;2022-10-16T07:08:42;101364.78;;;8.18;nan
43814;BME280;29669;55.706;37.656;2022-10-16T07:11:31;101364.28;;;8.26;nan
43814;BME280;29669;55.706;37.656;2022-10-16T07:14:20;101367.28;;;8.32;nan
43814;BME280;29669;55.706;37.656;2022-10-16T07:17:09;101367.75;;;8.37;nan
43814;BME280;29669;55.706;37.656;2022-10-16T07:19:56;101369.06;;;8.43;nan
43814;BME280;29669;55.706;37.656;2022-10-16T07:22:44;101368.63;;;8.49;nan
43814;BME280;29669;55.706;37.656;2022-10-16T07:25:32;101368.91;;;8.57;nan
43814;BME280;29669;55.706;37.656;2022-10-16T07:28:20;101368.44;;;8.63;nan
43814;BME280;29669;55.706;37.656;2022-10-16T07:31:11;101365.41;;;8.69;nan
43814;BME280;29669;55.706;37.656;2022-10-16T07:34:00;101369.31;;;8.75;nan
43814;BME280;29669;55.706;37.656;2022-10-16T07:36:49;101364.53;;;8.81;nan
43814;BME280;29669;55.706;37.656;2022-10-16T07:39:37;101364.09;;;8.87;nan
43814;BME280;29669;55.706;37.656;2022-10-16T07:42:27;101363.59;;;8.93;nan
43814;BME280;29669;55.706;37.656;2022-10-16T07:45:15;101363.16;;;8.99;nan
43814;BME280;29669;55.706;37.656;2022-10-16T07:48:03;101361.78;;;9.06;nan
43814;BME280;29669;55.706;37.656;2022-10-16T07:50:51;101370.03;;;9.11;nan
43814;BME280;29669;55.706;37.656;2022-10-16T07:53:42;101365.44;;;9.15;nan
43814;BME280;29669;55.706;37.656;2022-10-16T07:56:31;101355.56;;;9.20;nan
43814;BME280;29669;55.706;37.656;2022-10-16T07:59:20;101362.16;;;9.24;nan
43814;BME280;29669;55.706;37.656;2022-10-16T08:02:08;101366.03;;;9.29;nan
43814;BME280;29669;55.706;37.656;2022-10-16T08:04:56;101363.97;;;9.34;nan
43814;BME280;29669;55.706;37.656;2022-10-16T08:07:49;101371.94;;;9.42;nan
43814;BME280;29669;55.706;37.656;2022-10-16T08:10:37;101369.72;;;9.49;nan
43814;BME280;29669;55.706;37.656;2022-10-16T08:13:25;101359.03;;;9.54;nan
43814;BME280;29669;55.706;37.656;2022-10-16T08:16:14;101381.97;;;9.58;nan
43814;BME280;29669;55.706;37.656;2022-10-16T08:19:02;101369.59;;;9.62;nan
43814;BME280;29669;55.706;37.656;2022-10-16T08:21:50;101366.53;;;9.68;nan
43814;BME280;29669;55.706;37.656;2022-10-16T08:24:38;101360.19;;;9.72;nan
43814;BME280;29669;55.706;37.656;2022-10-16T08:27:31;101365.97;;;9.75;nan
43814;BME280;29669;55.706;37.656;2022-10-16T08:30:20;101370.81;;;9.80;nan
43814;BME280;29669;55.706;37.656;2022-10-16T08:33:09;101364.88;;;9.89;nan
43814;BME280;29669;55.706;37.656;2022-10-16T08:35:57;101363.13;;;10.00;nan
43814;BME280;29669;55.706;37.656;2022-10-16T08:38:49;101364.09;;;10.10;nan
43814;BME280;29669;55.706;37.656;2022-10-16T08:48:06;101365.06;;;10.30;nan
43814;BME280;29669;55.706;37.656;2022-10-16T08:50:57;101358.00;;;10.32;nan
43814;BME280;29669;55.706;37.656;2022-10-16T08:56:39;101355.88;;;10.37;nan
43814;BME280;29669;55.706;37.656;2022-10-16T08:59:27;101360.53;;;10.43;nan
43814;BME280;29669;55.706;37.656;2022-10-16T09:08:34;101359.78;;;10.63;nan
43814;BME280;29669;55.706;37.656;2022-10-16T09:17:40;101357.44;;;10.81;nan
43814;BME280;29669;55.706;37.656;2022-10-16T09:20:42;101354.59;;;10.84;nan
43814;BME280;29669;55.706;37.656;2022-10-16T09:23:37;101352.44;;;10.89;nan
43814;BME280;29669;55.706;37.656;2022-10-16T09:26:25;101345.34;;;10.91;nan
43814;BME280;29669;55.706;37.656;2022-10-16T09:29:18;101353.59;;;10.96;nan
43814;BME280;29669;55.706;37.656;2022-10-16T09:32:20;101352.28;;;11.01;nan
43814;BME280;29669;55.706;37.656;2022-10-16T09:35:14;101351.75;;;11.07;nan
43814;BME280;29669;55.706;37.656;2022-10-16T09:38:04;101349.34;;;11.15;nan
43814;BME280;29669;55.706;37.656;2022-10-16T09:40:53;101342.66;;;11.22;nan
43814;BME280;29669;55.706;37.656;2022-10-16T09:43:57;101352.44;;;11.30;nan
43814;BME280;29669;55.706;37.656;2022-10-16T09:46:45;101349.59;;;11.33;nan
43814;BME280;29669;55.706;37.656;2022-10-16T09:49:33;101345.88;;;11.35;nan
43814;BME280;29669;55.706;37.656;2022-10-16T09:52:22;101344.56;;;11.41;nan
43814;BME280;29669;55.706;37.656;2022-10-16T09:55:17;101340.63;;;11.47;nan
43814;BME280;29669;55.706;37.656;2022-10-16T09:58:13;101331.47;;;11.52;nan
43814;BME280;29669;55.706;37.656;2022-10-16T10:01:02;101330.66;;;11.52;nan
43814;BME280;29669;55.706;37.656;2022-10-16T10:03:50;101329.28;;;11.57;nan
43814;BME280;29669;55.706;37.656;2022-10-16T10:09:35;101333.59;;;11.68;nan
43814;BME280;29669;55.706;37.656;2022-10-16T10:12:30;101319.38;;;11.72;nan
43814;BME280;29669;55.706;37.656;2022-10-16T10:15:21;101325.97;;;11.76;nan
43814;BME280;29669;55.706;37.656;2022-10-16T10:18:16;101322.84;;;11.82;nan
43814;BME280;29669;55.706;37.656;2022-10-16T10:21:05;101334.78;;;11.84;nan
43814;BME280;29669;55.706;37.656;2022-10-16T10:23:56;101323.38;;;11.85;nan
43814;BME280;29669;55.706;37.656;2022-10-16T10:26:53;101321.63;;;11.86;nan
43814;BME280;29669;55.706;37.656;2022-10-16T10:29:53;101314.38;;;11.89;nan
43814;BME280;29669;55.706;37.656;2022-10-16T10:39:32;101312.19;;;12.04;nan
43814;BME280;29669;55.706;37.656;2022-10-16T10:42:52;101320.00;;;12.04;nan
43814;BME280;29669;55.706;37.656;2022-10-16T10:45:44;101320.00;;;12.04;nan
43814;BME280;29669;55.706;37.656;2022-10-16T11:05:19;101304.28;;;12.24;nan
43814;BME280;29669;55.706;37.656;2022-10-16T11:08:16;101291.94;;;12.26;nan
43814;BME280;29669;55.706;37.656;2022-10-16T11:11:17;101297.16;;;12.26;nan
43814;BME280;29669;55.706;37.656;2022-10-16T11:17:18;101297.03;;;12.28;nan
43814;BME280;29669;55.706;37.656;2022-10-16T11:23:14;101295.22;;;12.28;nan
43814;BME280;29669;55.706;37.656;2022-10-16T11:26:11;101295.78;;;12.32;nan
43814;BME280;29669;55.706;37.656;2022-10-16T11:29:04;101288.09;;;12.30;nan
43814;BME280;29669;55.706;37.656;2022-10-16T11:32:18;101280.16;;;12.32;nan
43814;BME280;29669;55.706;37.656;2022-10-16T11:35:38;101285.09;;;12.35;nan
43814;BME280;29669;55.706;37.656;2022-10-16T11:41:41;101285.09;;;12.35;nan
43814;BME280;29669;55.706;37.656;2022-10-16T11:48:23;101295.66;;;12.34;nan
43814;BME280;29669;55.706;37.656;2022-10-16T11:54:21;101276.59;;;12.33;nan
43814;BME280;29669;55.706;37.656;2022-10-16T11:57:17;101276.31;;;12.36;nan
43814;BME280;29669;55.706;37.656;2022-10-16T12:00:20;101283.88;;;12.39;nan
43814;BME280;29669;55.706;37.656;2022-10-16T12:06:39;101272.78;;;12.37;nan
43814;BME280;29669;55.706;37.656;2022-10-16T12:09:30;101279.47;;;12.40;nan
43814;BME280;29669;55.706;37.656;2022-10-16T12:18:24;101278.78;;;12.57;nan
43814;BME280;29669;55.706;37.656;2022-10-16T12:21:14;101286.88;;;12.54;nan
43814;BME280;29669;55.706;37.656;2022-10-16T12:24:03;101280.84;;;12.53;nan
43814;BME280;29669;55.706;37.656;2022-10-16T12:26:52;101270.25;;;12.74;nan
43814;BME280;29669;55.706;37.656;2022-10-16T12:29:42;101264.56;;;13.16;nan
43814;BME280;29669;55.706;37.656;2022-10-16T12:32:36;101259.00;;;13.56;nan
43814;BME280;29669;55.706;37.656;2022-10-16T12:35:35;101257.78;;;13.95;nan
43814;BME280;29669;55.706;37.656;2022-10-16T12:38:46;101258.56;;;14.23;nan
43814;BME280;29669;55.706;37.656;2022-10-16T12:41:36;101264.97;;;14.46;nan
43814;BME280;29669;55.706;37.656;2022-10-16T12:44:32;101256.50;;;14.70;nan
43814;BME280;29669;55.706;37.656;2022-10-16T12:53:21;101257.31;;;15.30;nan
43814;BME280;29669;55.706;37.656;2022-10-16T13:05:32;101248.38;;;15.90;nan
43814;BME280;29669;55.706;37.656;2022-10-16T13:17:30;101250.34;;;15.96;nan
43814;BME280;29669;55.706;37.656;2022-10-16T13:23:57;101245.78;;;16.22;nan
43814;BME280;29669;55.706;37.656;2022-10-16T13:27:09;101252.69;;;16.31;nan
43814;BME280;29669;55.706;37.656;2022-10-16T13:30:14;101245.81;;;16.30;nan
43814;BME280;29669;55.706;37.656;2022-10-16T13:33:07;101244.66;;;16.25;nan
43814;BME280;29669;55.706;37.656;2022-10-16T13:36:01;101255.94;;;16.09;nan
43814;BME280;29669;55.706;37.656;2022-10-16T13:39:00;101251.50;;;15.93;nan
43814;BME280;29669;55.706;37.656;2022-10-16T13:42:09;101249.31;;;15.65;nan
43814;BME280;29669;55.706;37.656;2022-10-16T13:45:05;101256.03;;;15.00;nan
43814;BME280;29669;55.706;37.656;2022-10-16T13:48:09;101254.16;;;14.06;nan
43814;BME280;29669;55.706;37.656;2022-10-16T13:51:01;101261.00;;;13.45;nan
43814;BME280;29669;55.706;37.656;2022-10-16T13:53:50;101254.16;;;12.97;nan
43814;BME280;29669;55.706;37.656;2022-10-16T13:56:39;101253.69;;;12.65;nan
43814;BME280;29669;55.706;37.656;2022-10-16T13:59:36;101255.50;;;12.36;nan
43814;BME280;29669;55.706;37.656;2022-10-16T14:02:34;101250.56;;;12.14;nan
43814;BME280;29669;55.706;37.656;2022-10-16T14:05:24;101255.06;;;11.93;nan
43814;BME280;29669;55.706;37.656;2022-10-16T14:08:12;101240.25;;;11.74;nan
43814;BME280;29669;55.706;37.656;2022-10-16T14:11:01;101241.97;;;11.64;nan
43814;BME280;29669;55.706;37.656;2022-10-16T14:13:49;101248.13;;;11.54;nan
43814;BME280;29669;55.706;37.656;2022-10-16T14:16:45;101249.72;;;11.45;nan
43814;BME280;29669;55.706;37.656;2022-10-16T14:19:50;101255.16;;;11.32;nan
43814;BME280;29669;55.706;37.656;2022-10-16T14:22:43;101261.31;;;11.22;nan
43814;BME280;29669;55.706;37.656;2022-10-16T14:25:32;101257.97;;;11.10;nan
43814;BME280;29669;55.706;37.656;2022-10-16T14:28:22;101254.34;;;11.02;nan
43814;BME280;29669;55.706;37.656;2022-10-16T14:31:31;101249.94;;;10.93;nan
43814;BME280;29669;55.706;37.656;2022-10-16T14:40:16;101270.31;;;10.67;nan
43814;BME280;29669;55.706;37.656;2022-10-16T14:43:04;101262.81;;;10.53;nan
43814;BME280;29669;55.706;37.656;2022-10-16T14:45:54;101275.59;;;10.45;nan
43814;BME280;29669;55.706;37.656;2022-10-16T14:48:56;101261.03;;;10.33;nan
43814;BME280;29669;55.706;37.656;2022-10-16T14:51:46;101257.16;;;10.27;nan
43814;BME280;29669;55.706;37.656;2022-10-16T14:54:34;101270.75;;;10.20;nan
43814;BME280;29669;55.706;37.656;2022-10-16T14:57:24;101258.97;;;10.16;nan
43814;BME280;29669;55.706;37.656;2022-10-16T15:00:20;101270.16;;;10.16;nan
43814;BME280;29669;55.706;37.656;2022-10-16T15:03:09;101273.16;;;10.12;nan
43814;BME280;29669;55.706;37.656;2022-10-16T15:05:57;101273.16;;;10.12;nan
43814;BME280;29669;55.706;37.656;2022-10-16T15:08:44;101278.34;;;10.12;nan
43814;BME280;29669;55.706;37.656;2022-10-16T15:11:32;101277.72;;;10.08;nan
43814;BME280;29669;55.706;37.656;2022-10-16T15:14:20;101276.66;;;10.11;nan
43814;BME280;29669;55.706;37.656;2022-10-16T15:17:10;101271.84;;;10.06;nan
43814;BME280;29669;55.706;37.656;2022-10-16T15:19:58;101270.31;;;10.04;nan
43814;BME280;29669;55.706;37.656;2022-10-16T15:22:47;101270.19;;;10.05;nan
43814;BME280;29669;55.706;37.656;2022-10-16T15:28:35;101270.78;;;9.98;nan
43814;BME280;29669;55.706;37.656;2022-10-16T15:31:23;101274.56;;;9.94;nan
43814;BME280;29669;55.706;37.656;2022-10-16T15:34:11;101275.75;;;9.90;nan
43814;BME280;29669;55.706;37.656;2022-10-16T15:37:03;101269.63;;;9.91;nan
43814;BME280;29669;55.706;37.656;2022-10-16T15:39:51;101271.97;;;9.94;nan
43814;BME280;29669;55.706;37.656;2022-10-16T15:42:39;101268.69;;;9.92;nan
43814;BME280;29669;55.706;37.656;2022-10-16T15:45:27;101264.94;;;9.85;nan
43814;BME280;29669;55.706;37.656;2022-10-16T15:48:15;101271.06;;;9.84;nan
43814;BME280;29669;55.706;37.656;2022-10-16T15:51:07;101269.53;;;9.81;nan
43814;BME280;29669;55.706;37.656;2022-10-16T15:53:56;101262.09;;;9.77;nan
43814;BME280;29669;55.706;37.656;2022-10-16T15:56:44;101255.66;;;9.71;nan
43814;BME280;29669;55.706;37.656;2022-10-16T15:59:33;101260.13;;;9.69;nan
43814;BME280;29669;55.706;37.656;2022-10-16T16:02:20;101259.41;;;9.67;nan
43814;BME280;29669;55.706;37.656;2022-10-16T16:05:10;101251.78;;;9.66;nan
43814;BME280;29669;55.706;37.656;2022-10-16T16:07:58;101257.91;;;9.65;nan
43814;BME280;29669;55.706;37.656;2022-10-16T16:10:58;101260.72;;;9.62;nan
43814;BME280;29669;55.706;37.656;2022-10-16T16:13:46;101262.53;;;9.61;nan
43814;BME280;29669;55.706;37.656;2022-10-16T16:16:34;101268.19;;;9.55;nan
43814;BME280;29669;55.706;37.656;2022-10-16T16:19:25;101261.72;;;9.49;nan
43814;BME280;29669;55.706;37.656;2022-10-16T16:22:12;101264.78;;;9.43;nan
43814;BME280;29669;55.706;37.656;2022-10-16T16:25:00;101252.16;;;9.39;nan
43814;BME280;29669;55.706;37.656;2022-10-16T16:27:49;101263.59;;;9.36;nan
43814;BME280;29669;55.706;37.656;2022-10-16T16:30:37;101267.13;;;9.35;nan
43814;BME280;29669;55.706;37.656;2022-10-16T16:33:25;101265.25;;;9.37;nan
43814;BME280;29669;55.706;37.656;2022-10-16T16:36:13;101260.06;;;9.37;nan
43814;BME280;29669;55.706;37.656;2022-10-16T16:39:02;101259.81;;;9.29;nan
43814;BME280;29669;55.706;37.656;2022-10-16T16:41:50;101259.59;;;9.21;nan
43814;BME280;29669;55.706;37.656;2022-10-16T16:44:38;101262.53;;;9.17;nan
43814;BME280;29669;55.706;37.656;2022-10-16T16:47:26;101263.81;;;9.11;nan
43814;BME280;29669;55.706;37.656;2022-10-16T16:50:14;101276.31;;;9.06;nan
43814;BME280;29669;55.706;37.656;2022-10-16T16:53:03;101276.53;;;9.03;nan
43814;BME280;29669;55.706;37.656;2022-10-16T16:55:51;101259.13;;;9.05;nan
43814;BME280;29669;55.706;37.656;2022-10-16T16:58:39;101270.44;;;9.04;nan
43814;BME280;29669;55.706;37.656;2022-10-16T17:01:28;101268.63;;;9.05;nan
43814;BME280;29669;55.706;37.656;2022-10-16T17:04:16;101269.59;;;9.04;nan
43814;BME280;29669;55.706;37.656;2022-10-16T17:07:04;101273.47;;;8.98;nan
43814;BME280;29669;55.706;37.656;2022-10-16T17:09:52;101267.59;;;8.96;nan
43814;BME280;29669;55.706;37.656;2022-10-16T17:12:40;101261.00;;;8.92;nan
43814;BME280;29669;55.706;37.656;2022-10-16T17:15:28;101264.88;;;8.87;nan
43814;BME280;29669;55.706;37.656;2022-10-16T17:18:16;101266.75;;;8.85;nan
43814;BME280;29669;55.706;37.656;2022-10-16T17:21:06;101267.34;;;8.88;nan